Cape Meares, Oregon
Current Conditions -  °F | °C
As of 12:20 AM on Tuesday 27 Jan 2015 (Local Time) from KMMV Reporting Station
Moderate Fog Moderate Fog  
Wind Chill: 39°   Ceiling: 200
Heat Index: 42°   Visibility: 0.5mi
Dew Point: 41°   Wind: 5mph
Humidity: 96%   Direction: 140°SE
Pressure: 30.04"   Gusts: NA
Location:  45.4813°N, 123.674°W
Report Text: KMMV 270820Z AUTO 14004KT 1/2SM FG VV002 06/05 A3004 RMK AO2 T00560050
Loading
Personal Weather Stations






























Interactive Weather Map New forecast layout! Learn more

10-Day Weather Forecast

Advertisements
Track Severe Weather on mobile